createdAt,value
2017-11-30T00:00:44.896Z,76.16
2017-11-30T00:03:17.596Z,77.14
2017-11-30T00:05:47.325Z,76.12
2017-11-30T00:08:18.562Z,75.58
2017-11-30T00:10:56.234Z,74.36
2017-11-30T00:13:28.936Z,74.97
2017-11-30T00:15:58.949Z,75.30
2017-11-30T00:18:31.755Z,75.72
2017-11-30T00:20:59.374Z,75.80
2017-11-30T00:23:27.021Z,76.46
2017-11-30T00:25:54.765Z,75.79
2017-11-30T00:28:22.376Z,76.01
2017-11-30T00:31:01.085Z,75.89
2017-11-30T00:36:25.703Z,76.17
2017-11-30T00:38:55.793Z,76.01
2017-11-30T00:41:40.317Z,75.88
2017-11-30T00:44:25.378Z,75.73
2017-11-30T00:46:56.840Z,74.81
2017-11-30T00:49:27.692Z,75.28
2017-11-30T00:51:56.631Z,75.58
2017-11-30T00:54:26.539Z,75.59
2017-11-30T00:56:54.137Z,75.00
2017-11-30T00:59:21.637Z,74.73
2017-11-30T01:01:50.577Z,73.68
2017-11-30T01:04:18.594Z,73.38
2017-11-30T01:06:46.571Z,73.00
2017-11-30T01:09:14.251Z,73.14
2017-11-30T01:11:41.838Z,73.27
2017-11-30T01:14:09.569Z,73.38
2017-11-30T01:20:33.893Z,74.76
2017-11-30T01:23:05.837Z,74.32
2017-11-30T01:25:37.618Z,75.41
2017-11-30T01:28:08.182Z,75.76
2017-11-30T01:30:38.442Z,75.99
2017-11-30T01:33:12.517Z,75.98
2017-11-30T01:35:41.895Z,74.25
2017-11-30T02:14:41.448Z,78.26
2017-11-30T02:17:10.809Z,77.85
2017-11-30T02:19:38.478Z,77.11
2017-11-30T02:22:06.185Z,75.50
2017-11-30T02:24:34.465Z,75.30
2017-11-30T02:27:23.340Z,74.85
2017-11-30T02:30:04.779Z,73.63
2017-11-30T02:32:39.169Z,74.42
2017-11-30T02:35:14.160Z,74.18
2017-11-30T02:40:30.992Z,73.67
2017-11-30T02:43:03.386Z,74.36
2017-11-30T02:45:38.321Z,73.41
2017-11-30T02:48:11.170Z,73.16
2017-11-30T02:50:44.824Z,73.48
2017-11-30T02:53:18.863Z,73.65
2017-11-30T02:55:49.085Z,73.73
2017-11-30T02:58:28.551Z,73.92
2017-11-30T03:01:03.722Z,73.99
2017-11-30T03:03:39.033Z,73.35
2017-11-30T03:06:24.921Z,74.79
2017-11-30T03:09:07.164Z,75.14
2017-11-30T03:11:40.409Z,73.97
2017-11-30T03:14:16.477Z,73.29
2017-11-30T03:17:13.657Z,73.87
2017-11-30T03:19:41.163Z,74.12
2017-11-30T03:22:08.757Z,73.23
2017-11-30T03:24:36.295Z,73.83
2017-11-30T03:27:03.882Z,73.85
2017-11-30T03:29:31.494Z,73.65
2017-11-30T03:34:48.931Z,73.86
2017-11-30T03:37:16.437Z,74.25
2017-11-30T03:39:44.995Z,74.42
2017-11-30T03:42:13.392Z,74.20
2017-11-30T03:44:43.093Z,74.55
2017-11-30T03:47:18.585Z,74.61
2017-11-30T03:49:57.339Z,74.47
2017-11-30T03:52:28.751Z,74.29
2017-11-30T03:55:06.213Z,73.94
2017-11-30T03:57:49.575Z,74.69
2017-11-30T04:00:26.618Z,73.96
2017-11-30T04:03:05.789Z,74.50
2017-11-30T04:05:39.418Z,74.33
2017-11-30T04:08:11.353Z,73.79
2017-11-30T04:10:48.927Z,74.60
2017-11-30T04:13:16.660Z,74.53
2017-11-30T04:15:44.167Z,75.01
2017-11-30T04:18:11.838Z,74.94
2017-11-30T04:20:39.435Z,75.31
2017-11-30T04:23:07.132Z,74.89
2017-11-30T04:25:35.677Z,75.73
2017-11-30T04:28:13.318Z,75.70
2017-11-30T04:30:45.600Z,75.47
2017-11-30T04:33:13.812Z,76.26
2017-11-30T04:35:42.723Z,75.90
2017-11-30T04:38:32.906Z,76.32
2017-11-30T04:41:26.417Z,76.42
2017-11-30T04:44:06.558Z,77.82
2017-11-30T04:46:35.134Z,78.61
2017-11-30T04:49:03.867Z,78.03
2017-11-30T04:54:25.507Z,77.54
2017-11-30T04:56:59.151Z,77.87
2017-11-30T04:59:31.260Z,78.66
2017-11-30T05:02:10.429Z,78.04
2017-11-30T05:04:38.065Z,78.15
2017-11-30T05:07:10.309Z,78.55
2017-11-30T05:09:38.305Z,78.84
2017-11-30T05:12:12.421Z,79.30
2017-11-30T05:14:43.820Z,79.58
2017-11-30T05:17:33.717Z,80.20
2017-11-30T05:20:14.111Z,80.83
2017-11-30T05:22:44.570Z,81.45
2017-11-30T05:25:15.567Z,81.67
2017-11-30T05:27:44.922Z,82.31
2017-11-30T05:30:13.299Z,82.50
2017-11-30T05:32:43.716Z,83.40
2017-11-30T05:35:12.218Z,83.78
2017-11-30T05:37:40.113Z,83.82
2017-11-30T05:40:08.691Z,84.07
2017-11-30T05:42:38.953Z,84.13
2017-11-30T05:45:09.444Z,83.69
2017-11-30T05:47:40.191Z,83.92
2017-11-30T05:50:07.754Z,83.88
2017-11-30T05:52:52.256Z,84.71
2017-11-30T05:55:48.066Z,85.34
2017-11-30T05:58:18.053Z,84.90
2017-11-30T06:00:45.646Z,85.85
2017-11-30T06:03:14.430Z,85.55
2017-11-30T06:05:42.251Z,85.40
2017-11-30T06:08:09.939Z,84.90
2017-11-30T06:10:37.636Z,84.56
2017-11-30T06:13:06.324Z,84.48
2017-11-30T06:15:37.489Z,84.69
2017-11-30T06:18:08.446Z,84.95
2017-11-30T06:20:36.284Z,84.79
2017-11-30T06:23:17.053Z,84.88
2017-11-30T06:25:44.735Z,85.44
2017-11-30T06:28:22.339Z,85.84
2017-11-30T06:30:50.157Z,86.59
2017-11-30T06:33:18.098Z,86.16
2017-11-30T06:35:45.847Z,86.20
2017-11-30T06:38:13.542Z,85.62
2017-11-30T06:40:41.123Z,86.21
2017-11-30T06:43:09.400Z,86.46
2017-11-30T06:45:37.030Z,86.71
2017-11-30T06:48:04.585Z,86.37
2017-11-30T06:50:32.143Z,86.42
2017-11-30T06:52:59.705Z,85.93
2017-11-30T06:55:27.295Z,85.65
2017-11-30T06:57:54.899Z,85.31
2017-11-30T07:00:22.541Z,84.91
2017-11-30T07:02:50.110Z,84.42
2017-11-30T07:05:17.672Z,84.07
2017-11-30T07:07:45.183Z,84.13
2017-11-30T07:10:12.728Z,83.91
2017-11-30T07:12:40.222Z,84.40
2017-11-30T07:15:08.786Z,84.06
2017-11-30T07:17:36.281Z,83.57
2017-11-30T07:20:03.839Z,83.42
2017-11-30T07:22:31.378Z,83.21
2017-11-30T07:24:58.873Z,83.25
2017-11-30T07:27:26.380Z,83.01
2017-11-30T07:29:53.920Z,82.25
2017-11-30T07:32:21.449Z,82.29
2017-11-30T07:34:49.024Z,82.24
2017-11-30T07:37:17.562Z,82.20
2017-11-30T07:39:45.090Z,81.96
2017-11-30T07:42:12.765Z,81.84
2017-11-30T07:44:47.246Z,81.73
2017-11-30T07:47:14.766Z,81.58
2017-11-30T07:49:42.433Z,81.59
2017-11-30T07:52:18.667Z,81.98
2017-11-30T07:54:46.510Z,81.39
2017-11-30T07:57:14.035Z,81.16
2017-11-30T07:59:41.685Z,81.24
2017-11-30T08:02:09.334Z,81.69
2017-11-30T08:04:49.977Z,82.42
2017-11-30T08:21:08.201Z,82.51
2017-11-30T08:23:38.387Z,81.88
2017-11-30T08:26:06.364Z,81.15
2017-11-30T08:28:34.086Z,81.23
2017-11-30T08:31:04.436Z,81.72
2017-11-30T08:33:32.063Z,81.09
2017-11-30T08:35:59.598Z,80.95
2017-11-30T08:38:27.152Z,80.77
2017-11-30T08:40:54.764Z,81.01
2017-11-30T08:43:22.513Z,81.03
2017-11-30T08:45:51.082Z,81.34
2017-11-30T08:48:19.434Z,80.06
2017-11-30T08:50:46.945Z,80.76
2017-11-30T08:53:14.518Z,80.63
2017-11-30T08:55:43.015Z,80.56
2017-11-30T08:58:10.543Z,80.25
2017-11-30T09:00:38.077Z,79.17
2017-11-30T09:03:05.609Z,79.25
2017-11-30T09:05:33.125Z,79.69
2017-11-30T09:08:00.684Z,79.50
2017-11-30T09:10:28.226Z,79.64
2017-11-30T09:12:55.740Z,78.93
2017-11-30T09:15:23.600Z,78.38
2017-11-30T09:17:51.082Z,78.20
2017-11-30T09:20:18.624Z,79.20
2017-11-30T09:22:46.960Z,79.15
2017-11-30T09:25:14.555Z,79.16
2017-11-30T09:27:42.136Z,78.90
2017-11-30T09:30:10.542Z,78.22
2017-11-30T09:32:38.072Z,79.39
2017-11-30T09:35:05.621Z,79.33
2017-11-30T09:37:33.172Z,79.28
2017-11-30T09:40:00.714Z,79.62
2017-11-30T09:42:28.809Z,79.76
2017-11-30T09:44:56.356Z,79.00
2017-11-30T09:47:23.866Z,80.13
2017-11-30T09:49:51.624Z,79.88
2017-11-30T09:52:20.179Z,79.23
2017-11-30T09:54:47.647Z,79.47
2017-11-30T09:57:15.897Z,79.40
2017-11-30T09:59:43.482Z,78.66
2017-11-30T10:02:11.204Z,79.00
2017-11-30T10:04:38.731Z,78.85
2017-11-30T10:07:06.317Z,79.78
2017-11-30T10:09:33.856Z,79.55
2017-11-30T10:12:01.353Z,79.47
2017-11-30T10:14:28.879Z,79.23
2017-11-30T10:16:56.664Z,78.54
2017-11-30T10:19:24.257Z,78.99
2017-11-30T10:21:52.465Z,78.79
2017-11-30T10:24:20.017Z,78.45
2017-11-30T10:26:47.566Z,77.57
2017-11-30T10:29:15.112Z,75.77
2017-11-30T10:31:42.666Z,77.28
2017-11-30T10:34:10.173Z,76.83
2017-11-30T10:36:38.668Z,76.76
2017-11-30T10:39:06.260Z,76.87
2017-11-30T10:41:33.962Z,76.75
2017-11-30T10:44:01.524Z,77.07
2017-11-30T10:46:29.025Z,76.05
2017-11-30T10:48:56.585Z,75.81
2017-11-30T10:51:24.075Z,74.36
2017-11-30T10:53:51.631Z,76.98
2017-11-30T10:56:19.137Z,76.10
2017-11-30T10:58:46.681Z,75.11
2017-11-30T11:01:14.264Z,75.38
2017-11-30T11:03:41.804Z,75.03
2017-11-30T11:06:09.598Z,76.01
2017-11-30T11:08:37.235Z,75.95
2017-11-30T11:11:04.925Z,75.38
2017-11-30T11:13:32.370Z,75.50
2017-11-30T11:16:00.069Z,75.95
2017-11-30T11:18:27.596Z,76.26
2017-11-30T11:20:55.226Z,75.63
2017-11-30T11:23:22.764Z,75.70
2017-11-30T11:25:51.364Z,75.09
2017-11-30T11:28:18.936Z,76.60
2017-11-30T11:30:46.517Z,76.49
2017-11-30T11:33:14.151Z,76.52
2017-11-30T11:35:41.690Z,76.26
2017-11-30T11:38:09.300Z,76.21
2017-11-30T11:40:36.907Z,76.00
2017-11-30T11:43:04.466Z,75.67
2017-11-30T11:45:32.094Z,75.05
2017-11-30T11:47:59.585Z,75.19
2017-11-30T11:50:27.193Z,75.51
2017-11-30T11:52:54.719Z,75.19
2017-11-30T11:55:22.272Z,76.38
2017-11-30T11:57:49.884Z,75.09
2017-11-30T12:00:17.594Z,74.92
2017-11-30T12:02:45.767Z,76.03
2017-11-30T12:05:13.517Z,75.57
2017-11-30T12:07:43.258Z,75.83
2017-11-30T12:10:17.338Z,75.06
2017-11-30T12:12:45.279Z,74.66
2017-11-30T12:15:14.496Z,74.50
2017-11-30T12:17:45.961Z,75.62
2017-11-30T12:20:13.494Z,76.06
2017-11-30T12:22:41.010Z,74.83
2017-11-30T12:25:08.533Z,74.83
2017-11-30T12:27:36.090Z,74.14
2017-11-30T12:30:03.627Z,75.55
2017-11-30T12:32:31.224Z,75.27
2017-11-30T12:34:59.683Z,74.99
2017-11-30T12:37:27.950Z,74.82
2017-11-30T12:40:00.840Z,74.72
2017-11-30T12:42:28.397Z,74.46
2017-11-30T12:44:55.930Z,74.12
2017-11-30T12:47:23.466Z,75.05
2017-11-30T12:49:54.351Z,75.26
2017-11-30T12:52:22.919Z,73.54
2017-11-30T12:54:50.980Z,73.25
2017-11-30T12:57:18.676Z,73.55
2017-11-30T12:59:46.300Z,73.51
2017-11-30T13:02:13.859Z,74.07
2017-11-30T13:04:41.396Z,73.30
2017-11-30T13:07:08.965Z,72.64
2017-11-30T13:09:36.584Z,71.98
2017-11-30T13:12:04.204Z,73.22
2017-11-30T13:17:12.038Z,72.56
2017-11-30T13:19:39.536Z,72.09
2017-11-30T13:22:07.156Z,72.27
2017-11-30T13:24:34.851Z,71.28
2017-11-30T13:27:02.387Z,71.73
2017-11-30T13:29:30.203Z,72.09
2017-11-30T13:31:58.764Z,72.49
2017-11-30T13:34:26.314Z,72.61
2017-11-30T13:36:53.859Z,73.38
2017-11-30T13:39:21.364Z,72.83
2017-11-30T13:41:48.899Z,73.08
2017-11-30T13:44:16.646Z,73.65
2017-11-30T13:46:44.141Z,73.19
2017-11-30T13:49:11.652Z,73.13
2017-11-30T13:51:39.408Z,72.58
2017-11-30T13:54:06.945Z,72.52
2017-11-30T13:56:34.635Z,72.89
2017-11-30T13:59:02.230Z,72.15
2017-11-30T14:01:29.838Z,72.61
2017-11-30T14:03:57.469Z,72.20
2017-11-30T14:06:25.018Z,73.19
2017-11-30T14:08:52.558Z,72.71
2017-11-30T14:11:24.500Z,72.79
2017-11-30T14:13:52.033Z,73.05
2017-11-30T14:16:19.542Z,73.53
2017-11-30T14:18:47.083Z,72.25
2017-11-30T14:21:14.642Z,72.83
2017-11-30T14:23:42.165Z,72.87
2017-11-30T14:26:13.636Z,73.30
2017-11-30T14:28:43.398Z,73.71
2017-11-30T14:31:10.995Z,73.17
2017-11-30T14:33:38.500Z,72.42
2017-11-30T14:36:06.066Z,72.70
2017-11-30T14:38:35.100Z,73.20
2017-11-30T14:41:08.946Z,72.84
2017-11-30T14:43:41.302Z,72.31
2017-11-30T14:50:51.320Z,74.04
2017-11-30T14:53:18.909Z,74.42
2017-11-30T14:55:46.773Z,75.02
2017-11-30T14:58:21.048Z,74.65
2017-11-30T15:00:55.967Z,74.50
2017-11-30T15:03:23.470Z,74.10
2017-11-30T15:05:58.872Z,73.88
2017-11-30T15:11:46.753Z,74.28
2017-11-30T15:14:14.683Z,74.40
2017-11-30T15:16:42.290Z,75.08
2017-11-30T15:19:10.035Z,75.15
2017-11-30T15:21:37.527Z,74.66
2017-11-30T15:24:05.209Z,74.07
2017-11-30T15:26:32.730Z,73.70
2017-11-30T15:29:00.261Z,73.81
2017-11-30T15:31:27.832Z,74.22
2017-11-30T15:33:55.524Z,73.50
2017-11-30T15:36:23.517Z,73.74
2017-11-30T15:39:10.194Z,73.72
2017-11-30T15:41:37.748Z,73.04
2017-11-30T15:44:05.424Z,73.43
2017-11-30T15:46:33.110Z,73.35
2017-11-30T15:49:02.235Z,72.86
2017-11-30T15:51:29.855Z,73.35
2017-11-30T15:53:57.679Z,73.33
2017-11-30T15:56:26.605Z,73.00
2017-11-30T15:58:54.676Z,73.07
2017-11-30T16:01:22.537Z,72.35
2017-11-30T16:03:55.208Z,72.28
2017-11-30T16:06:32.150Z,72.78
2017-11-30T16:09:00.884Z,72.57
2017-11-30T16:11:30.024Z,72.50
2017-11-30T16:13:59.379Z,71.82
2017-11-30T16:16:27.124Z,73.13
2017-11-30T16:18:56.412Z,72.69
2017-11-30T16:21:24.024Z,73.43
2017-11-30T16:23:52.258Z,73.19
2017-11-30T16:26:21.800Z,72.93
2017-11-30T16:28:49.512Z,74.14
2017-11-30T16:31:18.184Z,73.75
2017-11-30T16:33:46.123Z,72.08
2017-11-30T16:36:13.885Z,73.48
2017-11-30T16:38:41.469Z,73.66
2017-11-30T16:41:09.013Z,73.25
2017-11-30T16:43:36.617Z,73.94
2017-11-30T16:46:04.428Z,73.40
2017-11-30T16:48:44.124Z,72.85
2017-11-30T16:51:12.772Z,72.72
2017-11-30T16:53:40.388Z,72.79
2017-11-30T16:56:14.067Z,73.21
2017-11-30T16:58:42.377Z,73.06
2017-11-30T17:01:11.134Z,74.06
2017-11-30T17:03:38.779Z,75.05
2017-11-30T17:06:06.314Z,75.56
2017-11-30T17:08:33.866Z,76.26
2017-11-30T17:11:01.665Z,76.76
2017-11-30T17:13:30.369Z,76.66
2017-11-30T17:15:58.164Z,77.05
2017-11-30T17:18:26.819Z,77.16
2017-11-30T17:20:54.692Z,77.16
2017-11-30T17:23:22.305Z,77.25
2017-11-30T17:25:49.976Z,78.15
2017-11-30T17:28:18.539Z,78.57
2017-11-30T17:30:46.030Z,78.12
2017-11-30T17:33:15.273Z,78.67
